Time;durP1;ratioP1;P1;durP2;ratioP2;P2;SDS_P1;SDS_P2;PMS_P1;PMS_P2;Temp;Humidity;BMP_temperature;BMP_pressure;BME280_temperature;BME280_humidity;BME280_pressure;Samples;Min_cycle;Max_cycle;Signal;HPM_P1;HPM_P2
2021/12/04 00:02:00;;;;;;;5.50;4.53;;;4.70;99.90;;;;;;5020295;28;20288;-50
2021/12/04 00:04:33;;;;;;;6.03;4.67;;;4.60;99.90;;;;;;5041310;28;20569;-54
2021/12/04 00:07:01;;;;;;;6.33;4.57;;;4.60;99.90;;;;;;5040212;28;20695;-52
2021/12/04 00:09:29;;;;;;;5.27;4.43;;;4.60;99.90;;;;;;5038733;28;20308;-51
2021/12/04 00:12:00;;;;;;;5.87;4.93;;;4.60;99.90;;;;;;5037193;28;20205;-51
2021/12/04 00:14:27;;;;;;;5.57;4.87;;;4.60;99.90;;;;;;5039553;28;20273;-51
2021/12/04 00:16:55;;;;;;;6.93;4.90;;;4.60;99.90;;;;;;5037229;28;20244;-52
2021/12/04 00:19:23;;;;;;;5.53;4.77;;;4.60;99.90;;;;;;5038435;28;20237;-52
2021/12/04 00:21:51;;;;;;;8.10;5.73;;;4.70;99.90;;;;;;5037998;28;20233;-51
2021/12/04 00:24:18;;;;;;;7.57;5.30;;;4.60;99.90;;;;;;5038688;28;20280;-53
2021/12/04 00:26:46;;;;;;;5.50;4.97;;;4.60;99.90;;;;;;5039389;28;20234;-52
2021/12/04 00:29:13;;;;;;;9.33;5.33;;;4.70;99.90;;;;;;5039067;28;20200;-52
2021/12/04 00:31:46;;;;;;;6.80;5.27;;;4.60;99.90;;;;;;5038991;28;20258;-52
2021/12/04 00:34:14;;;;;;;7.90;5.10;;;4.60;99.90;;;;;;5038709;28;20277;-52
2021/12/04 00:50:16;;;;;;;6.93;5.00;;;4.80;99.90;;;;;;5039235;28;20214;-53
2021/12/04 00:52:42;;;;;;;7.00;4.90;;;4.80;99.90;;;;;;5039466;28;20282;-53
2021/12/04 00:55:09;;;;;;;6.87;5.27;;;4.80;99.90;;;;;;5039106;28;20259;-51
2021/12/04 00:57:38;;;;;;;7.93;5.60;;;4.70;99.90;;;;;;5035259;28;20241;-52
2021/12/04 01:00:09;;;;;;;8.17;5.30;;;4.70;99.90;;;;;;5035922;28;20204;-52
2021/12/04 01:02:36;;;;;;;6.33;5.00;;;4.80;99.90;;;;;;5036148;28;20193;-52
2021/12/04 01:05:03;;;;;;;6.13;5.07;;;4.80;99.90;;;;;;5037968;28;20205;-52
2021/12/04 01:07:30;;;;;;;10.77;6.00;;;4.80;99.90;;;;;;5035565;28;20204;-51
2021/12/04 01:09:57;;;;;;;7.33;5.00;;;4.80;99.90;;;;;;5036507;28;20268;-50
2021/12/04 01:12:24;;;;;;;6.20;5.13;;;4.90;99.90;;;;;;5035324;28;20729;-51
2021/12/04 01:14:51;;;;;;;6.70;4.73;;;4.90;99.90;;;;;;5034731;28;20357;-52
2021/12/04 01:17:18;;;;;;;5.93;5.13;;;4.90;99.90;;;;;;5033329;28;20260;-52
2021/12/04 01:19:45;;;;;;;9.13;5.90;;;4.80;99.90;;;;;;5036975;28;20248;-52
2021/12/04 01:22:11;;;;;;;7.67;6.03;;;4.80;99.90;;;;;;5038881;28;20202;-52
2021/12/04 01:24:38;;;;;;;6.87;4.97;;;4.80;99.90;;;;;;5035989;28;20603;-51
2021/12/04 01:27:08;;;;;;;7.33;5.83;;;4.90;99.90;;;;;;5038585;28;20242;-52
2021/12/04 01:29:34;;;;;;;8.67;5.30;;;4.80;99.90;;;;;;5038173;28;20560;-51
2021/12/04 01:32:02;;;;;;;7.67;5.47;;;4.80;99.90;;;;;;5039721;28;20974;-52
2021/12/04 01:34:29;;;;;;;7.00;5.03;;;4.90;99.90;;;;;;5038204;28;20209;-50
2021/12/04 01:36:56;;;;;;;10.63;5.23;;;4.80;99.90;;;;;;5038947;28;20224;-51
2021/12/04 01:39:23;;;;;;;7.83;5.63;;;4.80;99.90;;;;;;5040751;28;20219;-51
2021/12/04 01:41:50;;;;;;;10.47;5.50;;;4.80;99.90;;;;;;5039880;28;20203;-52
2021/12/04 01:44:16;;;;;;;8.23;5.07;;;4.80;99.90;;;;;;5039754;28;20212;-52
2021/12/04 01:46:43;;;;;;;9.10;5.87;;;4.80;99.90;;;;;;5036694;28;20341;-53
2021/12/04 01:49:10;;;;;;;10.90;5.13;;;4.80;99.90;;;;;;5038297;28;20813;-50
2021/12/04 01:51:37;;;;;;;7.83;5.53;;;4.90;99.90;;;;;;5039263;28;20205;-52
2021/12/04 01:54:05;;;;;;;6.67;4.83;;;4.80;99.90;;;;;;5021357;28;20611;-51
2021/12/04 01:56:34;;;;;;;7.57;5.60;;;4.80;99.90;;;;;;5038119;28;20236;-51
2021/12/04 01:59:02;;;;;;;6.60;5.40;;;4.90;99.90;;;;;;5039077;28;20208;-50
2021/12/04 02:01:31;;;;;;;8.10;5.70;;;4.90;99.90;;;;;;5019837;28;20233;-51
2021/12/04 02:03:58;;;;;;;11.30;4.97;;;5.00;99.90;;;;;;5035830;28;20201;-53
2021/12/04 02:06:25;;;;;;;7.90;5.93;;;4.90;99.90;;;;;;5038947;28;20260;-53
2021/12/04 02:08:52;;;;;;;10.07;6.10;;;4.90;99.90;;;;;;5039030;28;22833;-52
2021/12/04 02:11:19;;;;;;;12.93;5.73;;;4.90;99.90;;;;;;5040338;28;20639;-51
2021/12/04 02:13:46;;;;;;;8.13;5.93;;;4.90;99.90;;;;;;5036841;28;20657;-50
2021/12/04 02:16:18;;;;;;;8.60;5.83;;;4.90;99.90;;;;;;5038673;28;20296;-51
2021/12/04 02:18:46;;;;;;;8.23;6.00;;;4.80;99.90;;;;;;5039872;28;20256;-54
2021/12/04 02:21:14;;;;;;;6.50;5.27;;;5.00;99.90;;;;;;5040602;28;20225;-51
2021/12/04 02:23:41;;;;;;;10.67;6.17;;;5.00;99.90;;;;;;5041797;28;20294;-52
2021/12/04 02:26:08;;;;;;;10.13;6.07;;;4.90;99.90;;;;;;5041376;28;20561;-53
2021/12/04 02:28:37;;;;;;;9.27;5.77;;;4.80;99.90;;;;;;5039963;28;20238;-53
2021/12/04 02:31:05;;;;;;;12.97;5.87;;;4.80;99.90;;;;;;5037113;28;20285;-51
2021/12/04 02:33:32;;;;;;;10.30;6.40;;;4.80;99.90;;;;;;5040068;28;20784;-54
2021/12/04 02:36:02;;;;;;;8.10;6.30;;;4.80;99.90;;;;;;5037287;28;20285;-53
2021/12/04 02:38:29;;;;;;;8.13;5.97;;;4.80;99.90;;;;;;5037869;28;20248;-53
2021/12/04 02:41:00;;;;;;;9.30;6.27;;;4.90;99.90;;;;;;5039129;28;20640;-53
2021/12/04 02:43:34;;;;;;;9.57;6.30;;;4.80;99.90;;;;;;5036634;28;20200;-52
2021/12/04 02:46:01;;;;;;;10.83;6.33;;;5.00;99.90;;;;;;5038107;28;20200;-53
2021/12/04 02:48:29;;;;;;;13.20;7.17;;;5.00;99.90;;;;;;5036794;28;20239;-52
2021/12/04 02:50:56;;;;;;;8.73;6.10;;;5.00;99.90;;;;;;5036794;28;20245;-53
2021/12/04 02:53:23;;;;;;;10.47;6.83;;;5.10;99.90;;;;;;5038585;28;20723;-53
2021/12/04 02:55:52;;;;;;;10.03;6.67;;;5.20;99.90;;;;;;5038773;28;20702;-51
2021/12/04 02:58:21;;;;;;;8.73;6.40;;;5.20;99.90;;;;;;5037846;28;20228;-52
2021/12/04 03:00:50;;;;;;;11.87;6.37;;;5.30;99.90;;;;;;5036699;28;20562;-51
2021/12/04 03:03:19;;;;;;;10.90;5.93;;;5.20;99.90;;;;;;5036700;28;20204;-53
2021/12/04 03:05:51;;;;;;;10.20;5.60;;;5.20;99.90;;;;;;5036520;28;20335;-52
2021/12/04 03:08:21;;;;;;;8.73;6.40;;;5.10;99.90;;;;;;5036298;28;20209;-53
2021/12/04 03:10:49;;;;;;;10.47;6.07;;;5.10;99.90;;;;;;5038167;28;21079;-52
2021/12/04 03:13:19;;;;;;;8.93;5.90;;;5.10;99.90;;;;;;5036311;28;20235;-52
2021/12/04 03:15:49;;;;;;;10.10;6.73;;;5.10;99.90;;;;;;5037129;28;20686;-52
2021/12/04 03:18:16;;;;;;;8.87;6.13;;;5.10;99.90;;;;;;5036595;28;20220;-51
2021/12/04 03:20:45;;;;;;;11.27;6.57;;;5.10;99.90;;;;;;5039320;28;20331;-51
2021/12/04 03:23:23;;;;;;;14.07;7.07;;;5.20;99.90;;;;;;5036754;28;20228;-53
2021/12/04 03:25:52;;;;;;;10.07;5.77;;;5.10;99.90;;;;;;5037241;28;20207;-53
2021/12/04 03:28:19;;;;;;;9.50;5.60;;;5.10;99.90;;;;;;5037081;28;20297;-51
2021/12/04 03:30:56;;;;;;;9.83;6.80;;;5.10;99.90;;;;;;5035334;28;20287;-52
2021/12/04 03:41:21;;;;;;;9.40;6.33;;;5.30;99.90;;;;;;5038934;28;20339;-51
2021/12/04 03:43:48;;;;;;;7.17;5.57;;;5.20;99.90;;;;;;5036103;28;20240;-54
2021/12/04 03:46:16;;;;;;;10.60;6.40;;;5.10;99.90;;;;;;5036727;28;20267;-52
2021/12/04 03:51:10;;;;;;;11.47;6.83;;;5.30;99.90;;;;;;5037018;28;20752;-53
2021/12/04 03:53:37;;;;;;;8.13;5.40;;;5.40;99.90;;;;;;5036372;28;20213;-53
2021/12/04 03:56:05;;;;;;;9.47;5.73;;;5.20;99.90;;;;;;5038567;28;20610;-52
2021/12/04 03:58:32;;;;;;;8.40;5.60;;;5.20;99.90;;;;;;5035903;28;21036;-51
2021/12/04 04:00:59;;;;;;;7.90;5.57;;;5.20;99.90;;;;;;5036881;28;20203;-51
2021/12/04 04:03:27;;;;;;;13.27;6.00;;;5.10;99.90;;;;;;5022160;28;20203;-52
2021/12/04 04:05:55;;;;;;;9.40;5.67;;;5.10;99.90;;;;;;5037293;28;20207;-50
2021/12/04 04:08:22;;;;;;;7.47;5.67;;;5.10;99.90;;;;;;5037086;28;20301;-54
2021/12/04 04:10:52;;;;;;;9.20;5.70;;;5.10;99.90;;;;;;5037626;28;20210;-53
2021/12/04 04:13:19;;;;;;;10.60;6.07;;;5.20;99.90;;;;;;5037044;28;20273;-51
2021/12/04 04:15:46;;;;;;;9.47;6.13;;;5.20;99.90;;;;;;5036639;28;20671;-52
2021/12/04 04:18:13;;;;;;;7.60;5.27;;;5.20;99.90;;;;;;5022243;28;20216;-51
2021/12/04 04:20:40;;;;;;;10.37;5.60;;;5.40;99.90;;;;;;5036450;28;20199;-54
2021/12/04 04:23:07;;;;;;;8.87;5.77;;;5.30;99.90;;;;;;5018558;28;20749;-52
2021/12/04 04:25:34;;;;;;;8.17;5.10;;;5.30;99.90;;;;;;5036550;28;20197;-52
2021/12/04 04:28:01;;;;;;;10.47;5.27;;;5.20;99.90;;;;;;5035296;28;20216;-51
2021/12/04 04:30:28;;;;;;;6.70;5.40;;;5.10;99.90;;;;;;5037380;28;20209;-51
2021/12/04 04:32:55;;;;;;;8.57;5.87;;;5.00;99.90;;;;;;5036504;28;20273;-52
2021/12/04 04:35:27;;;;;;;8.10;5.90;;;5.20;99.90;;;;;;5007426;28;20257;-51
2021/12/04 04:38:04;;;;;;;7.70;5.60;;;5.20;99.90;;;;;;5036735;28;20214;-51
2021/12/04 04:57:58;;;;;;;6.70;6.00;;;5.40;99.90;;;;;;5034108;28;20262;-53
2021/12/04 05:00:50;;;;;;;7.97;5.90;;;5.40;99.90;;;;;;5035879;28;20218;-53
2021/12/04 05:11:55;;;;;;;8.27;6.13;;;5.50;99.90;;;;;;5035228;28;20237;-51
2021/12/04 05:14:23;;;;;;;7.53;5.87;;;5.70;99.90;;;;;;5034755;28;20207;-52
2021/12/04 05:16:53;;;;;;;9.10;6.47;;;5.70;99.90;;;;;;5032602;28;20296;-51
2021/12/04 05:19:27;;;;;;;7.30;6.17;;;5.50;99.90;;;;;;5034537;28;20260;-54
2021/12/04 05:21:55;;;;;;;6.90;5.70;;;5.50;99.90;;;;;;5017122;28;20290;-52
2021/12/04 05:24:22;;;;;;;10.17;6.27;;;5.60;99.90;;;;;;5035373;28;20632;-53
2021/12/04 05:26:49;;;;;;;8.20;6.20;;;5.70;99.90;;;;;;5036215;28;20230;-52
2021/12/04 05:29:16;;;;;;;8.50;6.00;;;5.70;99.90;;;;;;5034903;28;20220;-51
2021/12/04 05:31:43;;;;;;;7.73;6.13;;;5.70;99.90;;;;;;5036987;28;20206;-52
2021/12/04 05:34:10;;;;;;;8.47;6.20;;;5.80;99.90;;;;;;5035868;28;20618;-52
2021/12/04 05:36:37;;;;;;;7.17;6.10;;;5.80;99.90;;;;;;5035102;28;20260;-51
2021/12/04 05:39:05;;;;;;;8.33;6.00;;;5.90;99.90;;;;;;5034131;28;20325;-53
2021/12/04 05:41:32;;;;;;;9.13;6.80;;;5.70;99.90;;;;;;5033836;28;20213;-53
2021/12/04 05:44:04;;;;;;;10.00;6.60;;;5.70;99.90;;;;;;5033991;28;20205;-52
2021/12/04 05:46:39;;;;;;;8.50;6.33;;;5.70;99.90;;;;;;5036422;28;20207;-53
2021/12/04 05:52:22;;;;;;;8.53;6.53;;;5.50;99.90;;;;;;5012659;28;20212;-51
2021/12/04 05:55:10;;;;;;;9.90;6.73;;;5.70;99.90;;;;;;5036633;28;20203;-54
2021/12/04 05:57:36;;;;;;;9.17;6.40;;;5.80;99.90;;;;;;5033264;28;20340;-52
2021/12/04 06:00:06;;;;;;;7.47;6.30;;;5.90;99.90;;;;;;5035312;28;20202;-54
2021/12/04 06:02:32;;;;;;;7.87;6.70;;;6.00;99.90;;;;;;5034084;28;20203;-51
2021/12/04 06:04:59;;;;;;;7.87;6.97;;;5.90;99.90;;;;;;5034388;28;20563;-52
2021/12/04 06:07:29;;;;;;;9.80;7.40;;;5.80;99.90;;;;;;5036245;28;20205;-52
2021/12/04 06:09:56;;;;;;;9.57;7.13;;;5.90;99.90;;;;;;5036404;28;20258;-52
2021/12/04 06:12:23;;;;;;;9.57;7.50;;;5.90;99.90;;;;;;5038348;28;20216;-52
2021/12/04 06:14:50;;;;;;;9.80;7.20;;;5.90;99.90;;;;;;5038401;28;20242;-52
2021/12/04 06:17:21;;;;;;;9.53;7.00;;;5.90;99.90;;;;;;5035982;28;20241;-51
2021/12/04 06:22:42;;;;;;;8.80;7.03;;;5.90;99.90;;;;;;5038358;28;20200;-52
2021/12/04 06:25:14;;;;;;;10.50;6.93;;;6.00;99.90;;;;;;5040403;28;20299;-51
2021/12/04 06:27:42;;;;;;;8.80;6.90;;;6.00;99.90;;;;;;5020177;28;20748;-50
2021/12/04 06:30:12;;;;;;;9.93;7.47;;;6.10;99.90;;;;;;5040166;28;20241;-50
2021/12/04 06:32:40;;;;;;;10.30;7.47;;;6.00;99.90;;;;;;5037833;28;20204;-53
2021/12/04 06:35:10;;;;;;;11.67;7.30;;;6.00;99.90;;;;;;5039838;28;20284;-52
2021/12/04 06:37:37;;;;;;;11.13;7.47;;;5.90;99.90;;;;;;5038891;28;20215;-53
2021/12/04 06:40:06;;;;;;;9.87;7.80;;;5.80;99.90;;;;;;5038419;28;20234;-53
2021/12/04 06:42:33;;;;;;;11.90;7.67;;;5.80;99.90;;;;;;5036610;28;20561;-54
2021/12/04 06:45:01;;;;;;;8.20;6.83;;;5.80;99.90;;;;;;5037739;28;20230;-53
2021/12/04 06:47:27;;;;;;;8.57;7.13;;;5.70;99.90;;;;;;5038595;28;20229;-52
2021/12/04 06:50:01;;;;;;;10.07;7.27;;;5.80;99.90;;;;;;5037780;28;20246;-51
2021/12/04 06:52:28;;;;;;;14.20;7.57;;;5.70;99.90;;;;;;5036912;28;20196;-51
2021/12/04 06:54:57;;;;;;;9.23;7.90;;;5.60;99.90;;;;;;5035055;28;20228;-51
2021/12/04 06:57:24;;;;;;;8.63;7.37;;;5.60;99.90;;;;;;5037580;28;20200;-50
2021/12/04 06:59:54;;;;;;;11.67;7.27;;;5.60;99.90;;;;;;5038232;28;20216;-51
2021/12/04 07:02:21;;;;;;;12.23;7.93;;;5.60;99.90;;;;;;5033558;28;20200;-50
2021/12/04 07:04:48;;;;;;;11.17;7.47;;;5.70;99.90;;;;;;5037873;28;20196;-53
2021/12/04 07:07:16;;;;;;;10.83;7.63;;;5.60;99.90;;;;;;5036624;28;20321;-51
2021/12/04 07:09:44;;;;;;;12.47;7.70;;;5.60;99.90;;;;;;5037087;28;20334;-51
2021/12/04 07:12:11;;;;;;;10.17;7.00;;;5.60;99.90;;;;;;5036078;28;20203;-53
2021/12/04 07:14:38;;;;;;;12.17;7.90;;;5.60;99.90;;;;;;5037093;28;20599;-52
2021/12/04 07:17:07;;;;;;;10.87;7.70;;;5.40;99.90;;;;;;5037762;28;20281;-51
2021/12/04 07:19:34;;;;;;;10.87;7.53;;;5.50;99.90;;;;;;5036240;28;20339;-50
2021/12/04 07:22:03;;;;;;;12.73;6.93;;;5.60;99.90;;;;;;5036145;28;20217;-53
2021/12/04 07:24:32;;;;;;;13.50;6.73;;;5.40;99.90;;;;;;5035983;28;20207;-52
2021/12/04 07:26:59;;;;;;;10.47;6.77;;;5.50;99.90;;;;;;5037341;28;20229;-51
2021/12/04 07:29:26;;;;;;;12.47;7.00;;;5.40;99.90;;;;;;5036299;28;20336;-52
2021/12/04 07:31:54;;;;;;;11.43;6.63;;;5.30;99.90;;;;;;5037973;28;20225;-52
2021/12/04 07:34:20;;;;;;;14.37;7.43;;;5.20;99.90;;;;;;5037574;28;20314;-52
2021/12/04 07:36:47;;;;;;;15.27;6.77;;;5.10;99.90;;;;;;5037411;28;20242;-53
2021/12/04 07:39:14;;;;;;;11.37;6.83;;;5.10;99.90;;;;;;5025071;28;20811;-51
2021/12/04 07:41:42;;;;;;;11.87;6.30;;;5.10;99.90;;;;;;5036180;28;20244;-52
2021/12/04 07:44:10;;;;;;;12.53;6.83;;;5.00;99.90;;;;;;5035890;28;20702;-52
2021/12/04 07:46:39;;;;;;;15.70;6.47;;;5.10;99.90;;;;;;5019826;28;20243;-51
2021/12/04 07:49:07;;;;;;;13.27;6.67;;;5.30;99.90;;;;;;5036119;28;20991;-52
2021/12/04 07:51:34;;;;;;;13.93;7.70;;;5.20;99.90;;;;;;5036901;28;20206;-54
2021/12/04 07:54:02;;;;;;;12.67;6.67;;;5.20;99.90;;;;;;5037771;28;20263;-52
2021/12/04 07:56:29;;;;;;;16.83;8.03;;;5.20;99.90;;;;;;5037890;28;20266;-53
2021/12/04 07:58:56;;;;;;;11.27;6.73;;;5.40;99.90;;;;;;5039939;28;20233;-52
2021/12/04 08:01:23;;;;;;;19.17;7.77;;;5.40;99.90;;;;;;5038588;28;20381;-53
2021/12/04 08:03:50;;;;;;;14.13;7.10;;;5.30;99.90;;;;;;5039479;28;20687;-52
2021/12/04 08:06:17;;;;;;;12.60;7.80;;;5.50;99.90;;;;;;5040553;28;20377;-52
2021/12/04 08:08:44;;;;;;;14.03;7.27;;;5.50;99.90;;;;;;5038184;28;20300;-52
2021/12/04 08:11:11;;;;;;;11.63;6.63;;;5.50;99.90;;;;;;5037761;28;21567;-51
2021/12/04 08:13:38;;;;;;;10.57;6.93;;;5.60;99.90;;;;;;5023257;28;20641;-51
2021/12/04 08:16:05;;;;;;;14.47;7.27;;;5.70;99.90;;;;;;5036501;28;20552;-53
2021/12/04 08:18:32;;;;;;;14.87;7.43;;;5.60;99.90;;;;;;5036795;28;20231;-52
2021/12/04 08:20:59;;;;;;;14.03;7.30;;;5.50;99.90;;;;;;5036807;28;20233;-51
2021/12/04 08:23:26;;;;;;;11.77;6.90;;;5.70;99.90;;;;;;5032976;28;20212;-52
2021/12/04 08:25:53;;;;;;;12.93;7.27;;;5.80;99.90;;;;;;5037440;28;20291;-52
2021/12/04 08:28:20;;;;;;;12.73;7.27;;;5.60;99.90;;;;;;5034774;28;21007;-51
2021/12/04 08:30:47;;;;;;;16.50;8.57;;;5.70;99.90;;;;;;5037539;28;21908;-53
2021/12/04 08:33:14;;;;;;;11.53;6.87;;;5.60;99.90;;;;;;5034805;28;20201;-52
2021/12/04 08:35:42;;;;;;;13.20;7.27;;;5.80;99.90;;;;;;5035142;28;20355;-52
2021/12/04 08:38:11;;;;;;;12.70;6.87;;;5.90;99.90;;;;;;5036839;28;20668;-54
2021/12/04 08:40:39;;;;;;;13.13;6.77;;;5.80;99.90;;;;;;5036684;28;20373;-53
2021/12/04 08:43:07;;;;;;;11.63;7.10;;;5.80;99.90;;;;;;5021283;28;20214;-52
2021/12/04 08:45:34;;;;;;;12.27;7.37;;;5.80;99.90;;;;;;5032483;28;22064;-51
2021/12/04 08:48:01;;;;;;;11.23;6.20;;;5.70;99.90;;;;;;5034015;28;20585;-50
2021/12/04 08:50:30;;;;;;;15.70;6.80;;;5.70;99.90;;;;;;5034837;28;20309;-50
2021/12/04 08:53:00;;;;;;;11.60;6.80;;;5.80;99.90;;;;;;5036606;28;20209;-51
2021/12/04 08:55:30;;;;;;;10.30;6.40;;;5.90;99.90;;;;;;5035355;28;20269;-53
2021/12/04 08:57:57;;;;;;;10.03;6.23;;;5.90;99.90;;;;;;5032914;28;20660;-52
2021/12/04 09:00:48;;;;;;;14.07;6.37;;;5.90;99.90;;;;;;5031714;28;20521;-52
2021/12/04 09:03:22;;;;;;;11.47;6.47;;;5.80;99.90;;;;;;5033978;28;20212;-51
2021/12/04 09:05:51;;;;;;;11.63;6.37;;;5.60;99.90;;;;;;5033249;28;22037;-51
2021/12/04 09:08:21;;;;;;;13.13;7.33;;;5.60;99.90;;;;;;5021365;28;20211;-54
2021/12/04 09:10:49;;;;;;;17.47;8.67;;;5.70;99.90;;;;;;5034815;28;20292;-53
2021/12/04 09:13:17;;;;;;;16.10;7.67;;;5.70;99.90;;;;;;5031176;28;20228;-52
2021/12/04 09:15:45;;;;;;;14.27;6.87;;;5.70;99.90;;;;;;5032886;28;20206;-51
2021/12/04 09:18:12;;;;;;;13.67;6.33;;;5.80;99.90;;;;;;5033611;28;20742;-52
2021/12/04 09:20:39;;;;;;;11.17;7.30;;;5.90;99.90;;;;;;5034964;28;20261;-51
2021/12/04 09:23:13;;;;;;;13.60;6.90;;;5.90;99.90;;;;;;5034210;28;20713;-51
2021/12/04 09:25:44;;;;;;;9.20;6.20;;;6.00;99.90;;;;;;5031073;28;20199;-51
2021/12/04 09:28:19;;;;;;;11.67;6.80;;;5.90;99.90;;;;;;5033675;28;20634;-54
2021/12/04 10:17:31;;;;;;;10.93;8.03;;;5.90;99.90;;;;;;5001935;28;20900;-53
2021/12/04 10:20:32;;;;;;;15.50;8.73;;;5.90;99.90;;;;;;5038856;28;20645;-52
2021/12/04 10:33:56;;;;;;;18.87;11.07;;;5.90;99.90;;;;;;5038437;28;20211;-52
2021/12/04 10:36:33;;;;;;;15.10;10.33;;;6.10;99.90;;;;;;5025514;28;20271;-52
2021/12/04 10:39:02;;;;;;;15.20;9.60;;;6.10;99.90;;;;;;5039622;28;20590;-52
2021/12/04 10:41:39;;;;;;;21.23;9.70;;;6.10;99.90;;;;;;5040198;28;20522;-52
2021/12/04 10:44:20;;;;;;;16.80;10.40;;;6.10;99.90;;;;;;5039028;28;20202;-51
2021/12/04 10:47:05;;;;;;;14.07;9.47;;;6.10;99.90;;;;;;5039777;28;20257;-52
2021/12/04 10:50:23;;;;;;;14.33;9.93;;;6.20;99.90;;;;;;5036130;28;20209;-51
2021/12/04 10:52:47;;;;;;;17.23;10.90;;;6.20;99.90;;;;;;5031826;28;20199;-52
2021/12/04 10:55:26;;;;;;;13.80;10.43;;;6.10;99.90;;;;;;5039998;28;20235;-52
2021/12/04 11:01:11;;;;;;;15.43;10.73;;;6.10;99.90;;;;;;5037327;28;20321;-52
2021/12/04 11:04:02;;;;;;;19.67;10.93;;;5.90;99.90;;;;;;5037432;28;20197;-53
2021/12/04 11:06:45;;;;;;;20.87;11.00;;;6.00;99.90;;;;;;5038845;28;20202;-52
2021/12/04 11:42:07;;;;;;;16.40;9.20;;;6.40;99.90;;;;;;5036854;28;20238;-50
2021/12/04 11:44:52;;;;;;;20.47;10.07;;;6.30;99.90;;;;;;5038080;28;20239;-51
2021/12/04 11:47:20;;;;;;;15.40;8.80;;;6.40;99.90;;;;;;5016371;28;20234;-51
2021/12/04 11:49:48;;;;;;;18.03;9.53;;;6.30;99.90;;;;;;5016165;28;20258;-50
2021/12/04 11:52:21;;;;;;;17.47;9.80;;;6.20;99.90;;;;;;5018922;28;20225;-52
2021/12/04 11:54:53;;;;;;;17.77;9.20;;;6.20;99.90;;;;;;5022315;28;20281;-50
2021/12/04 11:57:29;;;;;;;18.53;9.10;;;6.10;99.90;;;;;;5017329;28;20203;-51
2021/12/04 12:00:21;;;;;;;18.40;9.50;;;6.10;99.90;;;;;;5017842;28;20218;-50
2021/12/04 12:02:49;;;;;;;16.33;9.17;;;6.10;99.90;;;;;;5017379;28;20296;-51
2021/12/04 12:05:20;;;;;;;17.03;9.27;;;6.10;99.90;;;;;;5015489;28;20666;-57
2021/12/04 12:07:56;;;;;;;19.00;9.97;;;6.20;99.90;;;;;;5017005;28;20978;-53
2021/12/04 12:10:26;;;;;;;19.07;10.80;;;6.20;99.90;;;;;;5014888;28;20308;-53
2021/12/04 12:13:04;;;;;;;21.13;10.27;;;6.20;99.90;;;;;;5014006;28;20607;-52
2021/12/04 12:15:36;;;;;;;15.77;9.43;;;6.20;99.90;;;;;;5016979;28;20234;-51
2021/12/04 12:18:18;;;;;;;20.90;11.47;;;6.30;99.90;;;;;;5015384;28;20551;-50
2021/12/04 12:20:54;;;;;;;18.43;10.37;;;6.20;99.90;;;;;;5016558;28;20339;-51
2021/12/04 12:23:25;;;;;;;23.17;11.87;;;6.30;99.90;;;;;;5017308;28;20212;-49
2021/12/04 12:37:19;;;;;;;21.20;11.10;;;6.20;99.90;;;;;;5016966;28;20202;-53
2021/12/04 12:40:06;;;;;;;21.13;11.43;;;6.20;99.90;;;;;;5017895;28;20278;-52
2021/12/04 12:42:37;;;;;;;21.03;11.27;;;6.10;99.90;;;;;;5017658;28;20221;-50
2021/12/04 12:45:32;;;;;;;23.00;12.53;;;6.10;99.90;;;;;;5016354;28;20226;-54
2021/12/04 12:48:10;;;;;;;22.57;13.20;;;6.10;99.90;;;;;;5024953;28;20248;-51
2021/12/04 12:50:44;;;;;;;22.57;13.13;;;6.10;99.90;;;;;;5036962;28;20206;-52
2021/12/04 12:53:14;;;;;;;28.63;15.17;;;6.10;99.90;;;;;;5036653;28;20267;-52
2021/12/04 12:55:43;;;;;;;29.80;15.37;;;6.10;99.90;;;;;;5035366;28;20293;-51
2021/12/04 12:58:31;;;;;;;25.43;15.00;;;6.10;99.90;;;;;;5034532;28;20244;-52
2021/12/04 13:12:46;;;;;;;17.10;11.27;;;6.30;99.90;;;;;;5035410;28;20217;-53
2021/12/04 13:15:16;;;;;;;16.33;11.87;;;6.10;99.90;;;;;;5034255;28;20240;-52
2021/12/04 13:17:44;;;;;;;17.10;11.07;;;6.20;99.90;;;;;;5038278;28;20212;-52
2021/12/04 13:20:11;;;;;;;19.57;11.67;;;6.20;99.90;;;;;;5035050;28;20211;-52
2021/12/04 13:22:38;;;;;;;19.23;12.33;;;6.20;99.90;;;;;;5038874;28;20287;-54
2021/12/04 13:25:10;;;;;;;17.17;10.20;;;6.20;99.90;;;;;;5037988;28;20299;-53
2021/12/04 13:30:15;;;;;;;18.63;11.07;;;6.20;99.90;;;;;;5037291;28;20709;-50
2021/12/04 13:32:45;;;;;;;15.07;10.40;;;6.20;99.90;;;;;;5037858;28;20209;-53
2021/12/04 13:35:20;;;;;;;14.90;9.77;;;6.30;99.90;;;;;;5038290;28;20234;-50
2021/12/04 13:37:50;;;;;;;13.07;8.83;;;6.20;99.90;;;;;;5036121;28;20284;-49
2021/12/04 13:40:19;;;;;;;13.23;9.50;;;6.20;99.90;;;;;;5018588;28;20649;-53
2021/12/04 13:42:48;;;;;;;13.43;9.03;;;6.20;99.90;;;;;;5036344;28;20257;-52
2021/12/04 13:45:18;;;;;;;14.13;9.40;;;6.20;99.90;;;;;;5034465;28;20281;-53
2021/12/04 13:47:57;;;;;;;14.93;8.30;;;6.30;99.90;;;;;;5034965;28;20229;-50
2021/12/04 13:53:07;;;;;;;10.37;7.83;;;6.20;99.90;;;;;;5034252;28;20203;-52
2021/12/04 13:55:38;;;;;;;11.93;8.67;;;6.20;99.90;;;;;;5036769;28;20264;-51
2021/12/04 13:58:06;;;;;;;14.93;8.63;;;6.20;99.90;;;;;;5036278;28;20785;-51
2021/12/04 14:00:33;;;;;;;12.30;8.87;;;6.30;99.90;;;;;;5035987;28;20266;-51
2021/12/04 14:03:00;;;;;;;13.17;9.27;;;6.30;99.90;;;;;;5036114;28;20286;-54
2021/12/04 14:05:28;;;;;;;14.00;9.63;;;6.40;99.90;;;;;;5018956;28;20221;-50
2021/12/04 14:07:59;;;;;;;14.83;9.27;;;6.40;99.90;;;;;;5036149;28;20578;-55
2021/12/04 14:10:37;;;;;;;12.80;8.60;;;6.60;99.90;;;;;;5036418;28;20238;-51
2021/12/04 14:13:05;;;;;;;12.60;9.17;;;6.60;99.90;;;;;;5034096;28;20258;-52
2021/12/04 14:15:32;;;;;;;13.67;9.53;;;6.60;99.90;;;;;;5036570;28;20212;-50
2021/12/04 14:18:09;;;;;;;12.40;8.87;;;6.50;99.90;;;;;;5035606;28;20258;-51
2021/12/04 14:20:39;;;;;;;12.23;8.60;;;6.50;99.90;;;;;;5036054;28;20286;-52
2021/12/04 14:23:07;;;;;;;11.73;7.73;;;6.60;99.90;;;;;;5037628;28;20269;-50
2021/12/04 14:25:42;;;;;;;12.43;6.50;;;6.50;99.90;;;;;;5019618;28;20236;-51
2021/12/04 14:28:15;;;;;;;10.70;7.20;;;6.50;99.90;;;;;;5037013;28;20334;-52
2021/12/04 14:30:47;;;;;;;10.03;6.30;;;6.60;99.90;;;;;;5031898;28;20239;-51
2021/12/04 14:33:19;;;;;;;10.53;6.03;;;6.60;99.90;;;;;;5022304;28;20218;-52
2021/12/04 14:35:47;;;;;;;8.47;5.50;;;6.60;99.90;;;;;;5039434;28;20203;-51
2021/12/04 14:38:17;;;;;;;7.97;5.57;;;6.70;99.90;;;;;;5040515;28;20685;-51
2021/12/04 14:40:48;;;;;;;6.87;4.13;;;6.70;99.90;;;;;;5040566;28;20295;-51
2021/12/04 14:43:23;;;;;;;7.03;4.00;;;6.70;99.90;;;;;;5039286;28;20206;-53
2021/12/04 14:45:55;;;;;;;7.03;3.37;;;6.70;99.90;;;;;;5037592;28;20249;-51
2021/12/04 14:48:30;;;;;;;4.73;2.70;;;6.60;99.90;;;;;;5039812;28;20266;-51
2021/12/04 14:51:07;;;;;;;4.27;2.37;;;6.70;99.90;;;;;;5040777;28;20266;-51
2021/12/04 14:53:39;;;;;;;3.47;1.77;;;6.70;99.90;;;;;;5040229;28;20631;-53
2021/12/04 14:56:08;;;;;;;4.67;1.90;;;6.60;99.90;;;;;;5041582;28;20511;-51
2021/12/04 14:58:35;;;;;;;2.77;1.50;;;6.60;99.90;;;;;;5039558;28;20648;-52
2021/12/04 15:01:09;;;;;;;2.90;1.70;;;6.60;99.90;;;;;;5040040;28;20307;-51
2021/12/04 15:03:41;;;;;;;2.90;1.67;;;6.60;99.90;;;;;;5038515;28;20208;-53
2021/12/04 15:06:13;;;;;;;2.60;1.70;;;6.70;99.90;;;;;;5029012;28;20519;-52
2021/12/04 15:08:43;;;;;;;5.27;1.80;;;6.70;99.90;;;;;;5039319;28;20207;-51
2021/12/04 15:11:22;;;;;;;2.33;1.47;;;6.80;99.90;;;;;;5019541;28;20210;-51
2021/12/04 15:13:56;;;;;;;6.17;1.50;;;6.80;99.90;;;;;;5038583;28;20263;-53
2021/12/04 15:16:34;;;;;;;2.17;1.43;;;6.80;99.90;;;;;;5039877;28;20705;-52
2021/12/04 15:19:17;;;;;;;6.13;1.30;;;6.70;99.90;;;;;;5037873;28;20287;-52
2021/12/04 15:21:51;;;;;;;3.63;1.53;;;6.70;99.90;;;;;;5039252;28;20291;-52
2021/12/04 15:24:24;;;;;;;2.33;1.10;;;6.80;99.90;;;;;;5039490;28;20289;-51
2021/12/04 15:26:54;;;;;;;3.53;1.53;;;6.80;99.90;;;;;;5040064;28;20631;-50
2021/12/04 15:29:31;;;;;;;4.40;1.20;;;6.80;99.90;;;;;;5039266;28;20203;-53
2021/12/04 15:32:01;;;;;;;2.73;1.90;;;6.70;99.90;;;;;;5037812;28;20280;-51
2021/12/04 15:34:44;;;;;;;5.20;1.57;;;6.70;99.90;;;;;;5034020;28;20205;-51
2021/12/04 15:37:12;;;;;;;7.20;1.70;;;6.70;99.90;;;;;;5037564;28;20290;-53
2021/12/04 15:39:46;;;;;;;2.93;1.47;;;6.70;99.90;;;;;;5032965;28;20860;-52
2021/12/04 15:44:56;;;;;;;4.70;1.10;;;6.60;99.90;;;;;;5029768;28;20210;-51
2021/12/04 15:47:44;;;;;;;5.63;1.53;;;6.70;99.90;;;;;;5035499;28;20312;-51
2021/12/04 15:50:48;;;;;;;4.20;1.13;;;6.80;99.90;;;;;;5013887;28;20294;-51
2021/12/04 15:53:15;;;;;;;4.80;0.97;;;6.70;99.90;;;;;;5017360;28;20259;-50
2021/12/04 15:55:47;;;;;;;2.90;0.90;;;6.60;99.90;;;;;;5035159;28;20300;-52
2021/12/04 15:58:19;;;;;;;1.97;1.20;;;6.70;99.90;;;;;;5035116;28;20238;-53
2021/12/04 16:00:55;;;;;;;3.80;1.10;;;6.60;99.90;;;;;;5033921;28;20224;-52
2021/12/04 16:03:26;;;;;;;5.37;1.40;;;6.70;99.90;;;;;;5033318;28;20197;-51
2021/12/04 16:05:57;;;;;;;6.13;1.63;;;6.60;99.90;;;;;;5035257;28;20293;-52
2021/12/04 16:08:29;;;;;;;2.60;1.50;;;6.70;99.90;;;;;;5036825;28;20255;-53